Time;durP1;ratioP1;P1;durP2;ratioP2;P2;SDS_P1;SDS_P2;PMS_P1;PMS_P2;Temp;Humidity;BMP_temperature;BMP_pressure;BME280_temperature;BME280_humidity;BME280_pressure;Samples;Min_cycle;Max_cycle;Signal;HPM_P1;HPM_P2
2022/09/18 00:00:00;;;;;;;6.40;3.00;;;;;;;18.97;81.42;98340.28;3144595;28;20090;-63
2022/09/18 00:01:33;;;;;;;5.15;2.67;;;;;;;18.95;81.28;98336.97;3144303;28;20054;-63
2022/09/18 00:03:04;;;;;;;7.35;3.60;;;;;;;18.93;81.19;98325.72;3144221;28;20533;-63
2022/09/18 00:04:36;;;;;;;12.13;3.65;;;;;;;18.90;81.23;98326.03;3144541;28;20074;-64
2022/09/18 00:06:10;;;;;;;9.90;4.50;;;;;;;18.80;81.23;98319.09;3144722;28;20048;-63
2022/09/18 00:07:42;;;;;;;11.95;5.38;;;;;;;18.78;81.28;98326.34;3144134;28;20610;-63
2022/09/18 00:09:15;;;;;;;17.98;6.43;;;;;;;18.67;81.34;98312.56;3144792;28;20052;-63
2022/09/18 00:10:46;;;;;;;12.02;6.43;;;;;;;18.66;81.54;98324.91;3144345;28;20133;-63
2022/09/18 00:12:19;;;;;;;14.18;6.93;;;;;;;18.59;82.03;98326.53;3144587;28;20064;-63
2022/09/18 00:13:51;;;;;;;13.20;6.53;;;;;;;18.52;82.18;98326.31;3144076;28;20052;-63
2022/09/18 00:15:23;;;;;;;15.30;7.38;;;;;;;18.49;82.59;98326.66;3144500;28;20133;-63
2022/09/18 00:16:54;;;;;;;18.52;8.45;;;;;;;18.50;82.75;98332.72;3144125;28;20491;-63
2022/09/18 00:18:26;;;;;;;15.45;7.75;;;;;;;18.44;82.75;98326.28;3135681;28;20053;-63
2022/09/18 00:19:58;;;;;;;22.02;7.82;;;;;;;18.48;82.84;98337.31;3136657;28;20195;-63
2022/09/18 00:21:31;;;;;;;21.95;8.55;;;;;;;18.44;82.96;98328.09;3136812;28;20084;-63
2022/09/18 00:23:02;;;;;;;24.45;8.27;;;;;;;18.42;82.97;98330.88;3136638;28;20348;-63
2022/09/18 00:24:35;;;;;;;17.45;8.52;;;;;;;18.42;82.96;98334.31;3136295;28;20453;-64
2022/09/18 00:26:09;;;;;;;18.20;7.68;;;;;;;18.37;83.01;98323.44;3136528;28;20159;-63
2022/09/18 00:27:42;;;;;;;17.38;7.97;;;;;;;18.39;83.13;98329.34;3135881;28;20463;-63
2022/09/18 00:29:16;;;;;;;17.83;7.93;;;;;;;18.41;83.34;98322.13;3136025;28;20575;-63
2022/09/18 00:30:47;;;;;;;19.60;8.23;;;;;;;18.42;83.28;98309.78;3135355;28;20090;-64
2022/09/18 00:32:19;;;;;;;21.65;8.23;;;;;;;18.42;83.49;98301.88;3136214;28;20464;-64
2022/09/18 00:33:51;;;;;;;14.38;8.45;;;;;;;18.40;83.54;98291.50;3135997;28;20249;-63
2022/09/18 00:35:23;;;;;;;21.60;8.13;;;;;;;18.40;83.64;98299.41;3136021;28;20048;-63
2022/09/18 00:36:55;;;;;;;12.77;7.47;;;;;;;18.41;83.63;98302.88;3136520;28;20048;-63
2022/09/18 00:38:27;;;;;;;15.77;9.02;;;;;;;18.39;83.76;98305.63;3136029;28;20528;-63
2022/09/18 00:39:59;;;;;;;14.57;7.57;;;;;;;18.39;83.78;98312.72;3135280;28;20048;-63
2022/09/18 00:41:32;;;;;;;13.88;8.05;;;;;;;18.38;84.00;98319.81;3135693;28;20168;-63
2022/09/18 00:43:22;;;;;;;12.88;7.20;;;;;;;18.30;84.35;98314.47;3130278;28;20052;-63
2022/09/18 00:44:54;;;;;;;12.25;5.80;;;;;;;18.22;84.42;98318.88;3131560;28;20594;-63
2022/09/18 00:46:32;;;;;;;11.13;5.65;;;;;;;18.14;84.76;98332.81;3135895;28;20048;-63
2022/09/18 00:48:04;;;;;;;11.38;6.10;;;;;;;18.12;84.77;98340.03;3136217;28;20062;-63
2022/09/18 00:49:37;;;;;;;9.40;5.10;;;;;;;18.05;84.55;98336.38;3135202;28;20052;-63
2022/09/18 00:51:09;;;;;;;10.43;6.32;;;;;;;18.12;84.64;98334.78;3136499;28;20045;-63
2022/09/18 00:52:51;;;;;;;12.52;6.57;;;;;;;18.14;84.80;98327.56;3136684;28;20128;-64
2022/09/18 00:54:27;;;;;;;9.20;6.07;;;;;;;18.16;84.79;98320.31;3136085;28;20078;-63
2022/09/18 00:56:01;;;;;;;8.68;5.30;;;;;;;18.16;84.80;98329.06;3135957;28;20052;-63
2022/09/18 00:57:39;;;;;;;8.95;6.13;;;;;;;18.17;84.73;98337.78;3135878;28;20060;-64
2022/09/18 00:59:16;;;;;;;10.32;5.38;;;;;;;18.14;84.69;98338.91;3136118;28;20063;-64
2022/09/18 01:00:48;;;;;;;12.07;8.10;;;;;;;18.14;84.68;98332.81;3136359;28;20167;-63
2022/09/18 01:02:19;;;;;;;11.02;6.70;;;;;;;18.16;84.56;98331.69;3137356;28;20056;-64
2022/09/18 01:03:51;;;;;;;7.97;5.00;;;;;;;18.13;84.78;98328.50;3136764;28;20047;-63
2022/09/18 01:05:33;;;;;;;10.07;5.68;;;;;;;18.10;84.95;98339.34;3136493;28;20570;-63
2022/09/18 01:07:12;;;;;;;8.60;5.28;;;;;;;18.04;85.00;98337.34;3135484;28;20104;-63
2022/09/18 01:08:56;;;;;;;7.78;5.57;;;;;;;18.01;84.84;98340.28;3136746;28;20592;-64
2022/09/18 01:10:39;;;;;;;21.98;5.53;;;;;;;18.00;84.86;98351.81;3139706;28;20059;-62
2022/09/18 01:12:22;;;;;;;9.23;5.88;;;;;;;17.99;84.74;98350.16;3136202;28;20055;-62
2022/09/18 01:14:08;;;;;;;12.07;5.70;;;;;;;17.92;84.96;98331.47;3135810;28;20051;-62
2022/09/18 01:15:51;;;;;;;7.82;5.47;;;;;;;17.96;85.17;98340.75;3135494;28;20331;-62
2022/09/18 01:17:33;;;;;;;10.25;5.80;;;;;;;17.92;85.39;98345.50;3133654;28;20056;-62
2022/09/18 01:19:15;;;;;;;19.10;6.43;;;;;;;17.91;85.27;98338.56;3130629;28;20053;-62
2022/09/18 01:21:03;;;;;;;12.77;5.60;;;;;;;17.90;85.29;98339.53;3136547;28;20049;-62
2022/09/18 01:22:50;;;;;;;28.35;6.13;;;;;;;17.88;85.75;98344.13;3135739;28;20103;-62
2022/09/18 01:24:45;;;;;;;10.55;6.88;;;;;;;17.85;85.96;98340.97;3135738;28;20059;-62
2022/09/18 01:26:29;;;;;;;13.55;7.32;;;;;;;17.83;86.18;98341.09;3136140;28;20172;-62
2022/09/18 01:28:15;;;;;;;16.08;7.95;;;;;;;17.81;86.59;98340.47;3134267;28;20082;-64
2022/09/18 01:29:55;;;;;;;11.32;7.63;;;;;;;17.79;86.75;98334.50;3135779;28;20048;-62
2022/09/18 01:31:34;;;;;;;24.98;9.82;;;;;;;17.74;87.07;98337.53;3136406;28;20522;-63
2022/09/18 01:33:10;;;;;;;14.02;8.63;;;;;;;17.64;87.55;98320.19;3135848;28;20076;-63
2022/09/18 01:34:46;;;;;;;20.02;9.40;;;;;;;17.68;87.83;98329.44;3136626;28;20056;-63
2022/09/18 01:36:22;;;;;;;16.02;9.15;;;;;;;17.64;88.25;98336.81;3135736;28;20366;-65
2022/09/18 01:38:03;;;;;;;15.07;9.52;;;;;;;17.62;88.48;98328.22;3130324;28;20055;-64
2022/09/18 01:39:39;;;;;;;19.55;10.55;;;;;;;17.62;88.72;98333.47;3130855;28;20075;-63
2022/09/18 01:41:16;;;;;;;30.45;11.35;;;;;;;17.63;88.83;98334.31;3130851;28;20135;-63
2022/09/18 01:42:49;;;;;;;21.13;11.38;;;;;;;17.64;89.00;98335.97;3130454;28;20135;-63
2022/09/18 01:44:28;;;;;;;24.85;12.93;;;;;;;17.65;89.15;98337.63;3135680;28;20048;-61
2022/09/18 01:46:06;;;;;;;30.77;13.77;;;;;;;17.65;89.29;98337.63;3136081;28;20052;-62
2022/09/18 01:47:45;;;;;;;22.83;13.85;;;;;;;17.66;89.30;98337.50;3135360;28;20098;-62
2022/09/18 01:49:23;;;;;;;28.33;15.05;;;;;;;17.66;89.52;98340.13;3130598;28;20821;-63
2022/09/18 01:51:00;;;;;;;26.20;13.95;;;;;;;17.65;90.00;98354.25;3132093;28;20059;-63
2022/09/18 01:52:37;;;;;;;30.40;14.85;;;;;;;17.57;89.77;98342.78;3136272;28;20527;-63
2022/09/18 01:54:20;;;;;;;45.40;15.60;;;;;;;17.68;89.96;98363.66;3136669;28;20258;-61
2022/09/18 01:55:58;;;;;;;24.55;13.63;;;;;;;17.70;89.99;98361.69;3136561;28;20062;-61
2022/09/18 01:57:36;;;;;;;29.05;14.68;;;;;;;17.72;89.96;98365.03;3134458;28;20522;-61
2022/09/18 01:59:12;;;;;;;31.10;14.43;;;;;;;17.70;90.39;98356.44;3136125;28;20509;-61
2022/09/18 02:00:50;;;;;;;26.42;13.57;;;;;;;17.72;90.48;98359.75;3133228;28;20055;-61
2022/09/18 02:02:27;;;;;;;31.52;14.43;;;;;;;17.75;90.25;98341.03;3133603;28;20357;-62
2022/09/18 02:04:04;;;;;;;27.55;15.10;;;;;;;17.79;90.29;98342.41;3135943;28;20157;-62
2022/09/18 02:05:40;;;;;;;28.05;14.95;;;;;;;17.82;90.16;98344.72;3135351;28;20547;-63
2022/09/18 02:07:18;;;;;;;30.98;15.32;;;;;;;17.85;90.30;98344.44;3134600;28;20061;-62
2022/09/18 02:08:53;;;;;;;27.40;14.57;;;;;;;17.88;90.32;98343.31;3137430;28;20059;-62
2022/09/18 02:10:29;;;;;;;28.27;13.75;;;;;;;17.90;90.31;98344.00;3137055;28;20110;-62
2022/09/18 02:12:04;;;;;;;26.27;14.07;;;;;;;17.87;90.20;98333.75;3135168;28;20246;-63
2022/09/18 02:13:41;;;;;;;23.15;13.43;;;;;;;17.92;90.48;98339.38;3135444;28;20056;-63
2022/09/18 02:15:15;;;;;;;22.83;12.98;;;;;;;17.85;90.49;98328.63;3135954;28;20131;-64
2022/09/18 02:17:17;;;;;;;23.42;13.48;;;;;;;17.90;90.40;98342.19;3134728;28;20834;-64
2022/09/18 02:18:53;;;;;;;28.88;14.52;;;;;;;17.89;90.19;98334.41;3128457;28;20063;-64
2022/09/18 02:20:29;;;;;;;23.92;12.48;;;;;;;17.89;90.27;98343.13;3130281;28;20130;-64
2022/09/18 02:22:11;;;;;;;27.08;13.52;;;;;;;17.89;90.02;98340.50;3128915;28;20174;-63
2022/09/18 02:23:43;;;;;;;24.38;12.30;;;;;;;17.96;89.84;98354.75;3134843;28;20121;-65
2022/09/18 02:25:18;;;;;;;26.98;13.00;;;;;;;17.94;90.32;98343.53;3135556;28;20055;-63
2022/09/18 02:26:53;;;;;;;22.52;12.40;;;;;;;17.99;90.14;98352.78;3135458;28;20048;-63
2022/09/18 02:28:28;;;;;;;24.08;13.68;;;;;;;18.02;89.94;98352.50;3135128;28;20044;-63
2022/09/18 02:30:03;;;;;;;30.67;14.05;;;;;;;18.03;89.78;98354.13;3135169;28;20818;-63
2022/09/18 02:31:36;;;;;;;25.33;13.80;;;;;;;18.00;89.91;98357.06;3135160;28;20110;-63
2022/09/18 02:33:24;;;;;;;29.80;14.38;;;;;;;18.00;89.76;98355.25;3135473;28;20194;-63
2022/09/18 02:34:58;;;;;;;22.80;12.73;;;;;;;18.00;89.53;98351.81;3135533;28;20044;-63
2022/09/18 02:36:54;;;;;;;33.50;15.50;;;;;;;17.99;89.54;98355.44;3135017;28;20130;-63
2022/09/18 02:38:31;;;;;;;30.13;15.50;;;;;;;17.99;89.46;98355.44;3135087;28;20067;-62
2022/09/18 02:40:21;;;;;;;27.58;14.57;;;;;;;17.98;89.27;98364.28;3135124;28;20123;-63
2022/09/18 02:42:10;;;;;;;27.77;14.65;;;;;;;17.99;89.31;98365.97;3132367;28;20156;-63
2022/09/18 02:43:50;;;;;;;26.50;14.77;;;;;;;18.03;89.07;98372.56;3135355;28;20053;-62
2022/09/18 02:45:28;;;;;;;25.45;14.10;;;;;;;18.05;88.86;98378.53;3134411;28;20917;-63
2022/09/18 02:47:06;;;;;;;26.05;15.10;;;;;;;18.07;88.98;98389.72;3134189;28;20052;-63
2022/09/18 02:48:51;;;;;;;28.92;15.52;;;;;;;18.09;88.78;98390.41;3133759;28;20056;-63
2022/09/18 02:50:31;;;;;;;23.98;13.55;;;;;;;18.11;88.58;98397.19;3133846;28;20056;-63
2022/09/18 02:52:06;;;;;;;34.15;15.23;;;;;;;18.14;88.55;98402.16;3134131;28;20206;-64
2022/09/18 02:53:43;;;;;;;28.23;15.88;;;;;;;18.15;88.46;98402.97;3134688;28;20458;-63
2022/09/18 02:55:19;;;;;;;25.73;15.07;;;;;;;18.06;88.37;98398.59;3134983;28;20822;-63
2022/09/18 02:56:56;;;;;;;26.98;14.82;;;;;;;18.13;88.18;98405.78;3134761;28;20044;-63
2022/09/18 02:58:33;;;;;;;26.63;15.60;;;;;;;18.14;88.19;98417.13;3134127;28;20312;-63
2022/09/18 03:00:09;;;;;;;27.65;15.27;;;;;;;18.21;88.17;98430.53;3134932;28;20254;-63
2022/09/18 03:01:43;;;;;;;28.00;15.00;;;;;;;18.17;87.89;98444.00;3134936;28;20826;-63
2022/09/18 03:03:17;;;;;;;27.52;16.08;;;;;;;18.13;88.50;98457.59;3131074;28;20111;-63
2022/09/18 03:04:49;;;;;;;26.88;16.38;;;;;;;18.10;88.30;98456.13;3134462;28;20083;-63
2022/09/18 03:06:22;;;;;;;25.08;14.57;;;;;;;18.09;88.30;98461.53;3133846;28;20553;-63
2022/09/18 03:07:54;;;;;;;23.90;14.73;;;;;;;18.08;88.46;98467.78;3133639;28;20099;-63
2022/09/18 03:09:28;;;;;;;26.02;15.50;;;;;;;18.08;88.36;98460.72;3134747;28;20049;-63
2022/09/18 03:11:00;;;;;;;27.50;15.73;;;;;;;18.10;88.44;98465.81;3134190;28;20101;-63
2022/09/18 03:12:32;;;;;;;24.98;14.73;;;;;;;18.12;88.52;98482.31;3134867;28;20079;-64
2022/09/18 03:14:03;;;;;;;28.42;16.13;;;;;;;18.11;88.69;98475.38;3133754;28;20103;-63
2022/09/18 03:15:35;;;;;;;28.75;15.25;;;;;;;18.09;88.91;98477.34;3134186;28;20342;-63
2022/09/18 03:17:07;;;;;;;25.08;14.70;;;;;;;18.05;89.20;98476.00;3133871;28;20044;-63
2022/09/18 03:18:38;;;;;;;24.35;13.85;;;;;;;18.06;89.35;98491.63;3133986;28;20392;-63
2022/09/18 03:20:11;;;;;;;24.13;14.32;;;;;;;18.07;89.11;98495.09;3133727;28;20052;-63
2022/09/18 03:21:44;;;;;;;23.63;13.10;;;;;;;18.03;89.74;98499.00;3134319;28;20058;-63
2022/09/18 03:23:16;;;;;;;;;;;;;;;17.98;89.97;98509.16;3134935;28;20057;-62
2022/09/18 03:24:48;;;;;;;18.00;12.07;;;;;;;17.92;90.35;98519.31;3134902;28;20448;-63
2022/09/18 03:26:19;;;;;;;20.98;12.65;;;;;;;17.92;90.48;98518.47;3135244;28;20092;-63
2022/09/18 03:27:54;;;;;;;19.75;12.60;;;;;;;17.90;90.51;98523.91;3134918;28;20052;-65
2022/09/18 03:29:27;;;;;;;20.60;13.20;;;;;;;17.87;90.62;98523.38;3135213;28;20120;-63
2022/09/18 03:30:59;;;;;;;22.73;13.50;;;;;;;17.86;91.02;98525.16;3134748;28;20453;-63
2022/09/18 03:32:31;;;;;;;20.05;12.60;;;;;;;17.83;91.11;98527.25;3134707;28;20055;-64
2022/09/18 03:34:03;;;;;;;21.58;11.90;;;;;;;17.74;91.42;98537.66;3128663;28;20121;-64
2022/09/18 03:35:35;;;;;;;16.95;9.65;;;;;;;17.72;91.21;98544.06;3135130;28;20063;-63
2022/09/18 03:37:09;;;;;;;17.75;8.88;;;;;;;17.66;90.90;98534.94;3135003;28;20060;-63
2022/09/18 03:38:41;;;;;;;12.20;7.60;;;;;;;17.63;90.60;98539.63;3134605;28;20066;-63
2022/09/18 03:40:12;;;;;;;11.00;6.90;;;;;;;17.60;90.41;98545.19;3134701;28;20471;-63
2022/09/18 03:41:46;;;;;;;9.40;5.88;;;;;;;17.58;89.56;98563.78;3132840;28;20208;-63
2022/09/18 03:43:17;;;;;;;8.95;5.00;;;;;;;17.57;88.74;98556.00;3130454;28;20130;-63
2022/09/18 03:44:49;;;;;;;8.80;4.40;;;;;;;17.57;88.02;98574.44;3134505;28;20091;-63
2022/09/18 03:46:22;;;;;;;6.28;3.80;;;;;;;17.56;87.33;98570.16;3134775;28;20050;-63
2022/09/18 03:47:55;;;;;;;6.50;3.85;;;;;;;17.54;86.70;98575.56;3134224;28;20113;-64
2022/09/18 03:49:27;;;;;;;6.75;3.72;;;;;;;17.53;86.51;98581.78;3134541;28;20052;-64
2022/09/18 03:51:00;;;;;;;7.97;3.78;;;;;;;17.52;86.51;98580.97;3134081;28;20115;-64
2022/09/18 03:52:33;;;;;;;12.02;4.60;;;;;;;17.51;86.53;98589.84;3135182;28;20397;-64
2022/09/18 03:54:05;;;;;;;9.15;4.10;;;;;;;17.48;86.66;98595.41;3137590;28;20139;-63
2022/09/18 03:55:37;;;;;;;5.50;3.90;;;;;;;17.51;86.89;98603.00;3137841;28;20378;-63
2022/09/18 03:57:08;;;;;;;7.30;4.45;;;;;;;17.52;86.65;98604.66;3138117;28;20474;-63
2022/09/18 03:58:40;;;;;;;8.57;3.55;;;;;;;17.50;86.50;98622.38;3138031;28;20059;-63
2022/09/18 04:00:14;;;;;;;5.80;3.20;;;;;;;17.40;86.45;98608.44;3137137;28;20052;-63
2022/09/18 04:01:48;;;;;;;5.32;2.60;;;;;;;17.42;85.81;98617.03;3137128;28;20117;-64
2022/09/18 04:03:19;;;;;;;6.00;2.22;;;;;;;17.37;85.20;98627.13;3137549;28;20055;-64
2022/09/18 04:04:52;;;;;;;3.28;1.90;;;;;;;17.28;83.40;98628.81;3136698;28;20048;-63
2022/09/18 04:06:24;;;;;;;2.10;1.52;;;;;;;17.16;81.57;98631.75;3136457;28;20064;-63
2022/09/18 04:07:58;;;;;;;5.85;1.63;;;;;;;17.10;80.37;98650.72;3137496;28;20064;-63
2022/09/18 04:09:30;;;;;;;2.72;1.38;;;;;;;16.97;78.61;98649.16;3142512;28;20056;-63
2022/09/18 04:11:03;;;;;;;2.33;1.35;;;;;;;16.88;77.72;98676.28;3136697;28;20227;-63
2022/09/18 04:12:35;;;;;;;3.00;1.25;;;;;;;16.71;76.00;98663.78;3137258;28;20064;-64
2022/09/18 04:14:06;;;;;;;1.40;1.00;;;;;;;16.60;74.79;98680.50;3137138;28;20083;-63
2022/09/18 04:15:38;;;;;;;4.50;1.00;;;;;;;16.53;74.70;98689.88;3136541;28;20205;-63
2022/09/18 04:17:11;;;;;;;1.10;0.73;;;;;;;16.43;74.02;98689.84;3136677;28;20937;-63
2022/09/18 04:18:43;;;;;;;3.75;1.10;;;;;;;16.33;73.16;98699.53;3137076;28;20118;-62
2022/09/18 04:20:15;;;;;;;5.05;1.55;;;;;;;16.20;71.82;98709.41;3140369;28;20132;-62
2022/09/18 04:21:47;;;;;;;1.73;0.90;;;;;;;16.06;71.26;98718.44;3146356;28;20442;-62
2022/09/18 04:23:19;;;;;;;4.32;0.90;;;;;;;16.00;71.09;98729.47;3146734;28;20487;-62
2022/09/18 04:24:51;;;;;;;2.75;0.88;;;;;;;15.93;71.02;98732.63;3146649;28;20057;-62
2022/09/18 04:26:25;;;;;;;1.15;0.60;;;;;;;15.84;70.07;98753.56;3146578;28;20098;-62
2022/09/18 04:27:57;;;;;;;1.42;0.70;;;;;;;15.72;69.56;98754.59;3146418;28;20127;-62
2022/09/18 04:29:28;;;;;;;1.23;0.43;;;;;;;15.68;69.45;98764.53;3146537;28;20060;-61
2022/09/18 04:31:00;;;;;;;2.42;0.60;;;;;;;15.59;68.27;98767.88;3146583;28;20048;-62
2022/09/18 04:32:31;;;;;;;0.38;0.38;;;;;;;15.52;68.06;98764.91;3146411;28;20044;-61
2022/09/18 04:34:03;;;;;;;0.80;0.47;;;;;;;15.46;68.33;98776.72;3146293;28;20059;-62
2022/09/18 04:35:34;;;;;;;2.65;0.50;;;;;;;15.42;67.43;98774.50;3146316;28;20048;-62
2022/09/18 04:37:06;;;;;;;1.20;0.40;;;;;;;15.37;66.74;98784.53;3146683;28;20056;-62
2022/09/18 04:38:39;;;;;;;2.92;0.40;;;;;;;15.32;66.89;98781.44;3146332;28;20113;-63
2022/09/18 04:40:11;;;;;;;1.05;0.45;;;;;;;15.26;66.46;98782.75;3146370;28;20060;-62
2022/09/18 04:41:44;;;;;;;1.88;0.50;;;;;;;15.21;66.34;98782.31;3144648;28;20044;-62
2022/09/18 04:43:16;;;;;;;2.88;0.40;;;;;;;15.21;66.16;98801.50;3144036;28;20449;-62
2022/09/18 04:44:48;;;;;;;7.18;0.40;;;;;;;15.18;64.71;98793.06;3145588;28;20048;-62
2022/09/18 04:46:19;;;;;;;1.25;0.20;;;;;;;15.15;64.73;98791.50;3146543;28;20044;-63
2022/09/18 04:47:51;;;;;;;0.93;0.25;;;;;;;15.13;64.14;98790.78;3145590;28;20055;-63
2022/09/18 04:49:23;;;;;;;1.88;0.60;;;;;;;15.13;64.14;98798.66;3146093;28;20053;-63
2022/09/18 04:50:54;;;;;;;0.30;0.30;;;;;;;15.13;63.92;98795.22;3145816;28;20826;-63
2022/09/18 04:52:26;;;;;;;4.28;0.60;;;;;;;15.16;63.63;98798.41;3145898;28;20052;-64
2022/09/18 04:53:59;;;;;;;2.42;0.50;;;;;;;15.19;63.70;98800.78;3144124;28;20052;-63
2022/09/18 04:55:31;;;;;;;;;;;;;;;15.15;62.43;98806.41;3146386;28;20048;-63
2022/09/18 04:57:03;;;;;;;2.70;0.30;;;;;;;15.15;62.31;98809.03;3145241;28;19950;-63
2022/09/18 04:58:34;;;;;;;1.42;0.95;;;;;;;15.18;61.77;98817.50;3145854;28;20535;-62
2022/09/18 05:00:08;;;;;;;2.65;0.30;;;;;;;15.20;61.80;98818.22;3146221;28;20055;-63
2022/09/18 05:01:40;;;;;;;1.05;0.30;;;;;;;15.24;61.00;98824.03;3143696;28;20044;-63
2022/09/18 05:03:12;;;;;;;4.25;0.40;;;;;;;15.25;60.92;98834.38;3145691;28;20595;-63
2022/09/18 05:04:44;;;;;;;1.73;0.50;;;;;;;15.29;60.94;98827.09;3145205;28;20581;-63
2022/09/18 05:06:15;;;;;;;3.58;0.40;;;;;;;15.34;61.41;98827.56;3146058;28;20064;-63
2022/09/18 05:07:47;;;;;;;1.42;0.60;;;;;;;15.38;61.69;98836.03;3145659;28;20737;-63
2022/09/18 05:09:19;;;;;;;2.80;0.30;;;;;;;15.41;61.29;98833.16;3144256;28;20133;-63
2022/09/18 05:10:51;;;;;;;1.55;0.50;;;;;;;15.46;61.17;98833.63;3145737;28;20051;-63
2022/09/18 05:12:23;;;;;;;1.58;0.40;;;;;;;15.50;60.93;98848.19;3145609;28;20053;-63
2022/09/18 05:13:55;;;;;;;0.93;0.77;;;;;;;15.54;61.25;98839.09;3145775;28;20048;-63
2022/09/18 05:15:28;;;;;;;0.73;0.40;;;;;;;15.60;61.55;98846.47;3145905;28;20076;-62
2022/09/18 05:17:03;;;;;;;0.95;0.40;;;;;;;15.63;60.99;98856.72;3145097;28;20182;-61
2022/09/18 05:18:35;;;;;;;0.75;0.40;;;;;;;15.68;61.40;98857.22;3145645;28;20053;-61
2022/09/18 05:20:08;;;;;;;1.15;0.30;;;;;;;15.75;61.57;98851.47;3145529;28;20052;-60
2022/09/18 05:21:52;;;;;;;3.28;0.50;;;;;;;15.77;60.84;98863.50;3145533;28;20120;-60
2022/09/18 05:23:26;;;;;;;1.48;0.43;;;;;;;15.79;61.01;98866.00;3146265;28;20243;-60
2022/09/18 05:25:00;;;;;;;1.23;0.47;;;;;;;15.83;60.95;98867.44;3144934;28;20075;-60
2022/09/18 05:26:33;;;;;;;1.40;0.40;;;;;;;15.86;61.31;98861.94;3144490;28;20044;-61
2022/09/18 05:28:06;;;;;;;3.33;0.60;;;;;;;15.84;61.15;98861.22;3144629;28;20044;-60
2022/09/18 05:29:45;;;;;;;1.33;0.65;;;;;;;15.85;61.24;98874.22;3144460;28;20113;-62
2022/09/18 05:31:17;;;;;;;2.67;0.90;;;;;;;15.84;60.96;98866.47;3141992;28;20045;-61
2022/09/18 05:32:57;;;;;;;1.33;0.40;;;;;;;15.85;60.18;98878.63;3144383;28;20049;-62
2022/09/18 05:34:29;;;;;;;1.95;0.50;;;;;;;15.82;59.59;98878.88;3143766;28;20045;-60
2022/09/18 05:36:03;;;;;;;2.50;0.60;;;;;;;15.78;59.32;98877.47;3144347;28;20063;-60
2022/09/18 05:37:34;;;;;;;;;;;;;;;15.76;59.13;98882.81;3145087;28;20048;-62
2022/09/18 05:39:06;;;;;;;3.17;0.40;;;;;;;15.73;58.87;98882.25;3144301;28;20015;-60
2022/09/18 05:40:39;;;;;;;1.40;0.50;;;;;;;15.74;59.10;98879.50;3144432;28;20123;-61
2022/09/18 05:42:11;;;;;;;;;;;;;;;15.74;59.33;98892.63;3143160;28;20063;-60
2022/09/18 05:43:44;;;;;;;0.50;0.38;;;;;;;15.74;58.21;98881.31;3144892;28;19920;-60
2022/09/18 05:45:16;;;;;;;4.70;0.40;;;;;;;15.73;58.02;98890.13;3144283;28;20044;-60
2022/09/18 05:46:48;;;;;;;4.35;0.50;;;;;;;15.80;58.13;98888.69;3145226;28;20501;-60
2022/09/18 05:48:20;;;;;;;1.48;0.30;;;;;;;15.85;57.83;98883.88;3141857;28;20510;-59
2022/09/18 05:49:52;;;;;;;3.80;1.98;;;;;;;15.89;57.58;98893.19;3143698;28;20056;-61
2022/09/18 05:51:24;;;;;;;5.10;1.00;;;;;;;15.93;57.27;98891.97;3145555;28;20429;-61
2022/09/18 05:53:00;;;;;;;16.27;8.35;;;;;;;15.95;56.93;98897.94;3143284;28;20052;-61
2022/09/18 05:54:35;;;;;;;4.47;1.02;;;;;;;15.99;57.03;98903.75;3143648;28;20055;-61
2022/09/18 05:56:08;;;;;;;0.57;0.40;;;;;;;15.99;56.63;98904.59;3145306;28;20528;-60
2022/09/18 05:57:38;;;;;;;2.30;1.08;;;;;;;16.04;56.90;98906.84;3142788;28;20442;-61
2022/09/18 05:59:10;;;;;;;3.58;0.60;;;;;;;16.06;56.46;98911.03;3145076;28;20067;-61
2022/09/18 06:00:43;;;;;;;7.25;4.47;;;;;;;16.09;56.37;98913.41;3144903;28;20201;-61
2022/09/18 06:02:15;;;;;;;5.15;0.40;;;;;;;16.06;55.74;98911.03;3144663;28;20854;-61
2022/09/18 06:03:49;;;;;;;2.53;0.82;;;;;;;16.15;55.24;98910.25;3144774;28;20098;-61
2022/09/18 06:05:21;;;;;;;6.35;3.53;;;;;;;16.21;54.86;98926.44;3144891;28;20078;-61
2022/09/18 06:06:53;;;;;;;7.63;1.17;;;;;;;16.27;54.69;98931.22;3144899;28;20048;-61
2022/09/18 06:08:25;;;;;;;2.22;0.52;;;;;;;16.29;54.21;98926.66;3145279;28;20793;-61
2022/09/18 06:09:58;;;;;;;4.82;0.50;;;;;;;16.30;54.01;98939.69;3146493;28;20052;-60
2022/09/18 06:11:31;;;;;;;4.55;0.30;;;;;;;16.33;53.57;98955.19;3145477;28;20053;-61
2022/09/18 06:13:05;;;;;;;0.65;0.30;;;;;;;16.34;53.51;98948.16;3145300;28;20536;-61
2022/09/18 06:14:37;;;;;;;0.55;0.30;;;;;;;16.37;53.25;98945.25;3136278;28;20530;-62
2022/09/18 06:16:09;;;;;;;0.88;0.57;;;;;;;16.41;53.35;98954.53;3135965;28;20049;-60
2022/09/18 06:17:41;;;;;;;1.23;0.45;;;;;;;16.45;52.87;98955.97;3135401;28;20084;-59
2022/09/18 06:19:13;;;;;;;0.95;0.52;;;;;;;16.47;52.22;98956.66;3135931;28;20503;-60
2022/09/18 06:20:53;;;;;;;1.48;0.30;;;;;;;16.44;52.21;98959.53;3135608;28;20040;-60
2022/09/18 06:22:25;;;;;;;0.57;0.30;;;;;;;16.44;51.88;98962.16;3134827;28;20068;-63
2022/09/18 06:23:57;;;;;;;1.02;0.25;;;;;;;16.48;52.24;98963.59;3134718;28;20052;-61
2022/09/18 06:25:30;;;;;;;1.33;0.25;;;;;;;16.51;52.03;98968.59;3135641;28;20155;-60
2022/09/18 06:27:04;;;;;;;0.82;0.45;;;;;;;16.53;51.58;98971.94;3136113;28;20100;-62
2022/09/18 06:28:36;;;;;;;2.17;0.50;;;;;;;16.54;51.58;98989.38;3136567;28;20056;-62
2022/09/18 06:30:09;;;;;;;1.90;0.38;;;;;;;16.57;51.49;98986.50;3134817;28;20052;-62
2022/09/18 06:31:41;;;;;;;4.40;0.57;;;;;;;16.63;51.47;98993.03;3134679;28;20109;-63
2022/09/18 06:33:13;;;;;;;4.47;0.45;;;;;;;16.63;51.05;98993.03;3136181;28;20095;-63
2022/09/18 06:34:45;;;;;;;2.33;0.40;;;;;;;16.74;51.20;98992.97;3135227;28;20060;-63
2022/09/18 06:36:18;;;;;;;0.88;0.50;;;;;;;16.77;50.40;99002.41;3136279;28;20059;-61
2022/09/18 06:37:50;;;;;;;0.77;0.50;;;;;;;16.79;50.45;98996.06;3135588;28;20056;-62
2022/09/18 06:39:22;;;;;;;3.90;0.60;;;;;;;16.85;50.21;98997.34;3134915;28;20110;-62
2022/09/18 06:40:54;;;;;;;0.70;0.40;;;;;;;16.81;50.23;98974.94;3134795;28;20060;-61
2022/09/18 06:42:28;;;;;;;1.15;0.57;;;;;;;16.93;50.38;98981.78;3136154;28;20049;-62
2022/09/18 06:44:00;;;;;;;5.60;0.50;;;;;;;16.98;50.02;98998.00;3136272;28;20382;-63
2022/09/18 06:45:32;;;;;;;1.30;0.80;;;;;;;17.08;50.03;98998.06;3133899;28;20056;-62
2022/09/18 06:47:05;;;;;;;0.50;0.50;;;;;;;17.11;49.07;99008.31;3135876;28;20060;-60
2022/09/18 06:48:37;;;;;;;1.17;0.70;;;;;;;17.20;48.69;99011.97;3134833;28;20053;-60
2022/09/18 06:50:09;;;;;;;5.00;0.60;;;;;;;17.24;48.42;98998.44;3134558;28;20082;-61
2022/09/18 06:51:42;;;;;;;3.20;1.00;;;;;;;17.33;48.40;98999.41;3134518;28;20692;-62
2022/09/18 06:53:14;;;;;;;2.80;0.97;;;;;;;17.45;48.51;98995.75;3135145;28;20053;-60
2022/09/18 06:54:46;;;;;;;3.78;0.60;;;;;;;17.53;48.02;98997.69;3136087;28;20060;-61
2022/09/18 06:56:18;;;;;;;1.00;0.55;;;;;;;17.66;48.23;98997.50;3135834;28;20052;-60
2022/09/18 06:57:57;;;;;;;8.80;1.40;;;;;;;17.79;47.56;98990.19;3128535;28;20059;-60
2022/09/18 06:59:29;;;;;;;1.20;0.65;;;;;;;17.81;47.85;99005.88;3128402;28;20048;-61
2022/09/18 07:01:02;;;;;;;2.88;0.50;;;;;;;17.88;47.90;99007.00;3135083;28;20064;-62
2022/09/18 07:02:33;;;;;;;;;;;;;;;17.88;47.48;99004.34;3134527;28;20106;-61
2022/09/18 07:04:05;;;;;;;0.60;0.50;;;;;;;17.88;46.71;99009.63;3134834;28;20402;-60
2022/09/18 07:05:40;;;;;;;0.60;0.47;;;;;;;17.87;46.68;99021.97;3134141;28;20513;-62
2022/09/18 07:07:12;;;;;;;3.60;0.60;;;;;;;17.89;46.90;99025.28;3133487;28;20091;-61
2022/09/18 07:08:44;;;;;;;0.63;0.30;;;;;;;17.96;46.88;99026.41;3135330;28;20064;-62
2022/09/18 07:10:15;;;;;;;2.35;0.50;;;;;;;17.99;46.37;99027.13;3138506;28;20151;-63
2022/09/18 07:11:48;;;;;;;7.40;0.50;;;;;;;17.96;46.51;99026.41;3134612;28;20048;-63
2022/09/18 07:13:21;;;;;;;1.30;0.50;;;;;;;17.94;46.52;99032.78;3134996;28;20483;-64
2022/09/18 07:14:53;;;;;;;;;;;;;;;17.91;47.11;99031.25;3135548;28;20686;-63
2022/09/18 07:16:25;;;;;;;1.27;0.60;;;;;;;17.92;47.54;99025.03;3134834;28;20509;-61
2022/09/18 07:17:59;;;;;;;1.13;0.70;;;;;;;18.02;47.63;99034.75;3134357;28;20110;-62
2022/09/18 07:19:30;;;;;;;3.55;0.75;;;;;;;18.02;47.47;99032.13;3134293;28;20114;-61
2022/09/18 07:21:03;;;;;;;14.70;9.27;;;;;;;17.95;47.24;99027.41;3134069;28;20087;-62